Time;durP1;ratioP1;P1;durP2;ratioP2;P2;SDS_P1;SDS_P2;PMS_P1;PMS_P2;Temp;Humidity;BMP_temperature;BMP_pressure;BME280_temperature;BME280_humidity;BME280_pressure;Samples;Min_cycle;Max_cycle;Signal;HPM_P1;HPM_P2
2023/06/24 00:01:13;;;;;;;11.27;7.97;;;;;;;19.74;100.00;93111.84;5069480;28;20049;-77
2023/06/24 00:03:39;;;;;;;13.85;8.75;;;;;;;19.81;100.00;93122.75;5071524;28;20509;-77
2023/06/24 00:06:08;;;;;;;12.75;8.45;;;;;;;19.75;100.00;93116.00;5076481;28;20107;-77
2023/06/24 00:08:36;;;;;;;12.18;8.43;;;;;;;19.66;100.00;93123.63;5069755;28;20094;-77
2023/06/24 00:11:05;;;;;;;13.07;8.13;;;;;;;19.68;100.00;93120.75;5075786;28;20107;-77
2023/06/24 00:13:33;;;;;;;12.60;8.50;;;;;;;19.68;100.00;93118.94;5076957;28;20132;-77
2023/06/24 00:15:59;;;;;;;12.63;8.90;;;;;;;19.71;100.00;93128.00;5067626;28;20052;-77
2023/06/24 00:18:29;;;;;;;12.27;7.70;;;;;;;19.71;100.00;93134.00;5070535;28;20040;-76
2023/06/24 00:20:56;;;;;;;13.93;8.43;;;;;;;19.68;100.00;93141.59;5078570;28;20044;-76
2023/06/24 00:23:24;;;;;;;13.98;8.93;;;;;;;19.64;100.00;93136.16;5071308;28;20040;-76
2023/06/24 00:25:51;;;;;;;11.95;8.75;;;;;;;19.64;100.00;93133.53;5073579;28;20045;-76
2023/06/24 00:28:19;;;;;;;11.63;8.57;;;;;;;19.61;100.00;93137.47;5074275;28;20033;-76
2023/06/24 00:30:46;;;;;;;12.30;8.40;;;;;;;19.62;100.00;93135.63;5073175;28;20045;-77
2023/06/24 00:33:13;;;;;;;12.07;8.65;;;;;;;19.59;100.00;93130.97;5084514;28;20530;-76
2023/06/24 00:35:40;;;;;;;13.50;8.65;;;;;;;19.62;100.00;93138.22;5071412;28;20090;-78
2023/06/24 00:38:07;;;;;;;12.95;8.82;;;;;;;19.56;100.00;93128.88;5076918;28;20093;-77
2023/06/24 00:40:34;;;;;;;11.57;7.82;;;;;;;19.52;100.00;93130.47;5078182;28;20056;-77
2023/06/24 00:43:02;;;;;;;13.05;8.50;;;;;;;19.51;100.00;93132.28;5079558;28;20072;-77
2023/06/24 00:45:31;;;;;;;12.23;8.10;;;;;;;19.52;100.00;93136.44;5087722;28;20044;-78
2023/06/24 00:47:58;;;;;;;12.02;7.78;;;;;;;19.46;100.00;93133.09;5071697;28;20054;-77
2023/06/24 00:50:25;;;;;;;14.90;8.90;;;;;;;19.45;100.00;93141.16;5071225;28;20110;-77
2023/06/24 00:52:52;;;;;;;15.18;8.50;;;;;;;19.36;100.00;93143.56;5072796;28;20452;-77
2023/06/24 00:55:20;;;;;;;13.90;8.13;;;;;;;19.26;100.00;93126.16;5073174;28;20109;-77
2023/06/24 00:57:50;;;;;;;11.02;8.10;;;;;;;19.32;100.00;93134.69;5070792;28;20712;-76
2023/06/24 01:00:19;;;;;;;11.50;7.93;;;;;;;19.27;100.00;93142.53;5074661;28;20045;-76
2023/06/24 01:02:49;;;;;;;13.20;9.02;;;;;;;19.21;100.00;93141.78;5071359;28;20055;-77
2023/06/24 01:05:16;;;;;;;11.30;7.95;;;;;;;19.19;100.00;93136.03;5072110;28;20551;-77
2023/06/24 01:07:44;;;;;;;11.23;7.72;;;;;;;19.21;100.00;93129.53;5072332;28;20060;-77
2023/06/24 01:10:14;;;;;;;12.90;8.43;;;;;;;19.18;100.00;93131.88;5071439;28;20048;-77
2023/06/24 01:12:43;;;;;;;11.88;8.82;;;;;;;19.15;100.00;93120.16;5079263;28;20040;-77
2023/06/24 01:15:11;;;;;;;16.35;9.50;;;;;;;19.13;100.00;93119.66;5076394;28;20582;-77
2023/06/24 01:17:44;;;;;;;11.68;8.30;;;;;;;19.07;100.00;93124.09;5069555;28;20048;-77
2023/06/24 01:20:20;;;;;;;11.85;8.88;;;;;;;19.02;100.00;93121.47;5075905;28;20052;-77
2023/06/24 01:23:20;;;;;;;13.98;9.18;;;;;;;19.03;100.00;93132.69;5081826;28;20113;-77
2023/06/24 01:26:20;;;;;;;11.52;8.10;;;;;;;18.94;100.00;93122.78;5079438;28;20799;-77
2023/06/24 01:29:22;;;;;;;11.55;8.43;;;;;;;18.93;100.00;93115.28;5079928;28;20163;-77
2023/06/24 01:31:53;;;;;;;11.68;8.05;;;;;;;18.90;100.00;93128.78;5070761;28;20055;-77
2023/06/24 01:34:29;;;;;;;12.48;7.97;;;;;;;18.93;100.00;93134.25;5071694;28;20249;-77
2023/06/24 01:37:05;;;;;;;13.88;8.93;;;;;;;18.90;100.00;93139.22;5072781;28;20049;-77
2023/06/24 01:39:34;;;;;;;11.65;8.25;;;;;;;18.80;100.00;93148.59;5073832;28;20040;-77
2023/06/24 01:42:09;;;;;;;11.07;7.78;;;;;;;18.77;100.00;93163.94;5070295;28;20052;-76
2023/06/24 01:44:36;;;;;;;14.52;8.05;;;;;;;18.61;100.00;93153.53;5072576;28;20040;-77
2023/06/24 01:47:08;;;;;;;11.98;7.95;;;;;;;18.67;100.00;93167.34;5080963;28;20409;-76
2023/06/24 01:49:40;;;;;;;13.38;8.32;;;;;;;18.66;100.00;93179.56;5070547;28;20865;-76
2023/06/24 01:52:09;;;;;;;15.73;8.73;;;;;;;18.63;100.00;93174.88;5072913;28;20098;-77
2023/06/24 01:54:37;;;;;;;14.10;9.15;;;;;;;18.59;100.00;93180.84;5072303;28;20041;-77
2023/06/24 01:57:09;;;;;;;11.60;8.73;;;;;;;18.54;100.00;93179.84;5070856;28;20052;-77
2023/06/24 01:59:40;;;;;;;14.75;9.52;;;;;;;18.34;100.00;93185.00;5071474;28;20100;-77
2023/06/24 02:02:09;;;;;;;18.00;10.45;;;;;;;18.14;100.00;93189.91;5071961;28;20504;-77
2023/06/24 02:04:36;;;;;;;19.17;10.65;;;;;;;18.07;100.00;93186.78;5068195;28;20452;-77
2023/06/24 02:07:05;;;;;;;19.50;10.82;;;;;;;18.03;100.00;93177.91;5076677;28;20105;-77
2023/06/24 02:09:34;;;;;;;21.75;10.75;;;;;;;18.07;100.00;93193.78;5083006;28;20040;-77
2023/06/24 02:12:03;;;;;;;19.58;11.43;;;;;;;17.90;100.00;93187.75;5075526;28;20556;-77
2023/06/24 02:14:31;;;;;;;17.60;10.95;;;;;;;17.98;100.00;93183.09;5069933;28;20048;-78
2023/06/24 02:17:00;;;;;;;19.55;11.50;;;;;;;18.07;100.00;93201.59;5071333;28;20102;-77
2023/06/24 02:19:31;;;;;;;20.42;11.27;;;;;;;18.12;100.00;93206.81;5071160;28;20118;-78
2023/06/24 02:22:00;;;;;;;15.90;10.80;;;;;;;18.15;100.00;93203.72;5070892;28;20040;-78
2023/06/24 02:24:28;;;;;;;17.38;10.43;;;;;;;18.21;100.00;93204.47;5067784;28;20578;-77
2023/06/24 02:26:57;;;;;;;17.65;9.85;;;;;;;18.25;100.00;93208.13;5073445;28;20106;-77
2023/06/24 02:29:26;;;;;;;15.93;10.68;;;;;;;18.00;100.00;93205.19;5071398;28;20086;-77
2023/06/24 02:31:54;;;;;;;17.83;10.77;;;;;;;18.10;100.00;93216.69;5079143;28;20044;-77
2023/06/24 02:34:20;;;;;;;19.35;10.73;;;;;;;18.15;100.00;93221.91;5075641;28;20074;-78
2023/06/24 02:36:49;;;;;;;17.55;10.80;;;;;;;18.22;100.00;93206.84;5072345;28;20143;-78
2023/06/24 02:39:16;;;;;;;22.02;11.98;;;;;;;18.28;100.00;93218.00;5073299;28;20566;-77
2023/06/24 02:41:44;;;;;;;17.60;11.23;;;;;;;18.37;100.00;93218.31;5070113;28;20048;-78
2023/06/24 02:44:11;;;;;;;20.50;10.27;;;;;;;18.41;100.00;93216.72;5069930;28;20413;-77
2023/06/24 02:46:39;;;;;;;15.75;10.30;;;;;;;18.43;100.00;93218.03;5070637;28;20510;-77
2023/06/24 02:49:06;;;;;;;17.58;10.07;;;;;;;18.42;100.00;93210.50;5072631;28;20099;-77
2023/06/24 02:51:33;;;;;;;19.88;10.05;;;;;;;18.46;100.00;93219.34;5067510;28;20045;-78
2023/06/24 02:54:02;;;;;;;22.55;10.05;;;;;;;18.45;100.00;93225.59;5072864;28;20036;-76
2023/06/24 02:56:29;;;;;;;16.45;9.57;;;;;;;18.44;100.00;93226.63;5068189;28;20052;-77
2023/06/24 02:58:56;;;;;;;13.30;8.98;;;;;;;18.45;100.00;93230.00;5072368;28;20390;-77
2023/06/24 03:01:25;;;;;;;14.48;9.10;;;;;;;18.41;100.00;93225.31;5072722;28;20086;-77
2023/06/24 03:03:54;;;;;;;15.25;8.45;;;;;;;18.43;100.00;93219.88;5071991;28;20493;-77
2023/06/24 03:06:22;;;;;;;13.50;9.23;;;;;;;18.45;100.00;93212.59;5070287;28;20048;-77
2023/06/24 03:08:49;;;;;;;15.15;8.73;;;;;;;18.32;100.00;93203.47;5071057;28;20037;-78
2023/06/24 03:11:17;;;;;;;12.20;8.77;;;;;;;18.36;100.00;93201.13;5073344;28;20052;-81
2023/06/24 03:13:44;;;;;;;13.45;8.85;;;;;;;18.27;100.00;93203.44;5073108;28;20455;-81
2023/06/24 03:16:13;;;;;;;10.73;8.05;;;;;;;18.33;100.00;93212.06;5068858;28;20618;-77
2023/06/24 03:18:41;;;;;;;12.50;9.25;;;;;;;18.35;100.00;93209.97;5070700;28;20138;-76
2023/06/24 03:21:08;;;;;;;15.82;9.05;;;;;;;18.40;100.00;93218.56;5074385;28;20091;-76
2023/06/24 03:23:34;;;;;;;14.05;8.80;;;;;;;18.41;100.00;93217.53;5080675;28;20057;-76
2023/06/24 03:26:02;;;;;;;15.52;8.75;;;;;;;18.40;100.00;93231.56;5070469;28;20453;-77
2023/06/24 03:28:31;;;;;;;15.18;8.73;;;;;;;18.41;100.00;93232.34;5070935;28;20040;-76
2023/06/24 03:30:57;;;;;;;16.25;9.40;;;;;;;18.38;100.00;93218.03;5079215;28;20503;-76
2023/06/24 03:33:26;;;;;;;15.90;9.80;;;;;;;18.48;100.00;93216.50;5069855;28;20050;-76
2023/06/24 03:35:53;;;;;;;13.27;9.07;;;;;;;18.52;100.00;93217.53;5078237;28;20040;-76
2023/06/24 03:38:20;;;;;;;18.52;9.65;;;;;;;18.51;100.00;93218.59;5067546;28;20052;-76
2023/06/24 03:40:47;;;;;;;15.65;9.30;;;;;;;18.60;100.00;93224.81;5076744;28;20181;-76
2023/06/24 03:43:14;;;;;;;16.80;10.77;;;;;;;18.65;100.00;93229.25;5069726;28;20086;-76
2023/06/24 03:45:43;;;;;;;18.85;10.38;;;;;;;18.58;100.00;93215.72;5069087;28;20097;-76
2023/06/24 03:48:09;;;;;;;18.48;10.73;;;;;;;18.47;100.00;93235.75;5067068;28;20048;-76
2023/06/24 03:50:36;;;;;;;18.08;11.27;;;;;;;18.26;100.00;93235.69;5069478;28;20048;-76
2023/06/24 03:53:03;;;;;;;16.35;9.93;;;;;;;18.08;100.00;93232.53;5072439;28;20049;-76
2023/06/24 03:55:30;;;;;;;14.07;9.73;;;;;;;17.82;100.00;93237.59;5071123;28;20094;-76
2023/06/24 03:57:56;;;;;;;15.50;9.82;;;;;;;17.91;100.00;93235.28;5074064;28;20444;-76
2023/06/24 04:00:23;;;;;;;19.45;11.68;;;;;;;18.12;100.00;93236.19;5077950;28;20053;-77
2023/06/24 04:02:52;;;;;;;15.98;10.07;;;;;;;18.26;100.00;93236.50;5079506;28;20109;-76
2023/06/24 04:05:18;;;;;;;14.35;9.98;;;;;;;18.43;100.00;93238.84;5076466;28;20658;-76
2023/06/24 04:07:46;;;;;;;14.30;9.13;;;;;;;18.51;100.00;93239.41;5073591;28;20098;-77
2023/06/24 04:10:13;;;;;;;21.48;11.10;;;;;;;18.61;100.00;93228.22;5073928;28;20141;-78
2023/06/24 04:12:40;;;;;;;16.30;9.90;;;;;;;18.75;100.00;93234.44;5073635;28;20093;-77
2023/06/24 04:15:08;;;;;;;19.23;10.35;;;;;;;18.86;100.00;93239.66;5079167;28;20052;-77
2023/06/24 04:17:35;;;;;;;14.82;10.05;;;;;;;18.95;100.00;93244.09;5071623;28;20059;-77
2023/06/24 04:20:04;;;;;;;18.65;11.43;;;;;;;19.06;100.00;93242.28;5078414;28;20110;-77
2023/06/24 04:22:31;;;;;;;15.25;9.82;;;;;;;19.14;100.00;93238.38;5073226;28;20477;-76
2023/06/24 04:24:57;;;;;;;16.25;9.32;;;;;;;19.26;100.00;93245.94;5078593;28;20090;-76
2023/06/24 04:27:24;;;;;;;15.73;10.32;;;;;;;19.27;100.00;93226.66;5073526;28;20555;-78
2023/06/24 04:29:51;;;;;;;14.13;9.68;;;;;;;19.44;100.00;93239.38;5074208;28;20093;-77
2023/06/24 04:32:18;;;;;;;15.77;9.90;;;;;;;19.49;100.00;93231.53;5081990;28;20138;-77
2023/06/24 04:34:44;;;;;;;17.15;9.30;;;;;;;19.58;100.00;93231.78;5076254;28;20089;-76
2023/06/24 04:37:13;;;;;;;12.45;8.80;;;;;;;19.69;100.00;93231.75;5079644;28;20517;-78
2023/06/24 04:39:39;;;;;;;17.83;9.77;;;;;;;19.78;100.00;93232.75;5082017;28;20539;-78
2023/06/24 04:42:06;;;;;;;17.85;9.60;;;;;;;19.85;100.00;93235.84;5074911;28;20044;-78
2023/06/24 04:44:33;;;;;;;20.30;10.65;;;;;;;19.95;100.00;93236.88;5085515;28;20040;-78
2023/06/24 04:47:00;;;;;;;16.63;9.55;;;;;;;20.01;100.00;93236.59;5073591;28;20094;-77
2023/06/24 04:49:26;;;;;;;16.42;9.63;;;;;;;20.15;100.00;93238.63;5072688;28;20036;-77
2023/06/24 04:51:53;;;;;;;21.73;9.57;;;;;;;20.22;100.00;93244.31;5072178;28;20048;-77
2023/06/24 04:54:21;;;;;;;15.13;9.32;;;;;;;20.24;100.00;93238.84;5074680;28;20539;-77
2023/06/24 04:56:50;;;;;;;15.13;9.55;;;;;;;20.33;100.00;93242.47;5070420;28;20508;-77
2023/06/24 04:59:17;;;;;;;14.20;9.10;;;;;;;20.46;100.00;93248.88;5081463;28;20128;-77
2023/06/24 05:01:44;;;;;;;14.07;9.20;;;;;;;20.52;100.00;93247.81;5074386;28;20043;-77
2023/06/24 05:04:10;;;;;;;11.73;8.73;;;;;;;20.48;100.00;93225.13;5071231;28;20048;-77
2023/06/24 05:06:37;;;;;;;17.13;10.13;;;;;;;20.76;100.00;93254.19;5081168;28;20102;-77
2023/06/24 05:09:04;;;;;;;13.40;8.90;;;;;;;20.84;100.00;93253.59;5076840;28;20097;-77
2023/06/24 05:11:32;;;;;;;16.67;10.13;;;;;;;20.93;100.00;93251.97;5074501;28;20105;-77
2023/06/24 05:13:59;;;;;;;12.88;8.80;;;;;;;20.99;100.00;93244.91;5074927;28;20045;-77
2023/06/24 05:16:25;;;;;;;23.23;10.13;;;;;;;21.05;100.00;93243.00;5072410;28;20462;-77
2023/06/24 05:18:52;;;;;;;17.42;10.35;;;;;;;21.08;100.00;93238.03;5075857;28;20492;-76
2023/06/24 05:21:19;;;;;;;15.10;9.40;;;;;;;21.12;100.00;93240.88;5076552;28;20048;-76
2023/06/24 05:23:45;;;;;;;15.68;10.20;;;;;;;21.21;100.00;93244.44;5071910;28;20045;-76
2023/06/24 05:26:12;;;;;;;16.55;9.63;;;;;;;21.30;100.00;93226.31;5070750;28;20045;-77
2023/06/24 05:28:40;;;;;;;15.43;9.32;;;;;;;21.45;100.00;93233.25;5072825;28;20052;-77
2023/06/24 05:31:07;;;;;;;15.18;9.52;;;;;;;21.56;100.00;93228.69;5071685;28;20048;-77
2023/06/24 05:33:34;;;;;;;14.77;9.73;;;;;;;21.61;100.00;93223.41;5079397;28;20101;-77
2023/06/24 05:36:00;;;;;;;15.70;9.15;;;;;;;21.86;100.00;93224.19;5076691;28;20874;-77
2023/06/24 05:38:27;;;;;;;16.05;8.73;;;;;;;21.98;100.00;93223.03;5076323;28;20056;-77
2023/06/24 05:40:54;;;;;;;15.05;9.43;;;;;;;21.97;100.00;93226.69;5073499;28;20855;-77
2023/06/24 05:43:20;;;;;;;15.45;9.50;;;;;;;22.23;100.00;93234.22;5077304;28;20047;-77
2023/06/24 05:45:49;;;;;;;13.95;9.70;;;;;;;22.33;100.00;93228.84;5080445;28;20044;-78
2023/06/24 05:48:15;;;;;;;14.23;8.63;;;;;;;22.49;100.00;93223.41;5073392;28;20044;-77
2023/06/24 05:50:42;;;;;;;14.63;8.65;;;;;;;22.53;100.00;93229.66;5073561;28;20060;-77
2023/06/24 05:53:09;;;;;;;12.27;8.55;;;;;;;22.51;100.00;93227.31;5070171;28;20062;-77
2023/06/24 05:55:36;;;;;;;12.45;7.88;;;;;;;22.82;100.00;93218.25;5071229;28;20048;-77
2023/06/24 05:58:02;;;;;;;18.15;7.78;;;;;;;23.07;100.00;93222.28;5070647;28;20056;-76
2023/06/24 06:00:29;;;;;;;13.05;8.43;;;;;;;23.50;100.00;93212.66;5072272;28;20105;-77
2023/06/24 06:02:57;;;;;;;12.82;7.90;;;;;;;23.64;100.00;93219.75;5073721;28;20048;-77
2023/06/24 06:05:24;;;;;;;12.98;9.32;;;;;;;23.89;100.00;93213.25;5071919;28;20044;-76
2023/06/24 06:07:51;;;;;;;13.18;8.45;;;;;;;24.19;100.00;93210.28;5071716;28;20052;-76
2023/06/24 06:10:18;;;;;;;12.68;8.50;;;;;;;24.46;100.00;93221.78;5077836;28;20049;-80
2023/06/24 06:12:45;;;;;;;13.02;8.40;;;;;;;24.45;100.00;93218.41;5076775;28;20443;-76
2023/06/24 06:15:12;;;;;;;14.38;8.13;;;;;;;24.50;100.00;93215.66;5074798;28;20040;-77
2023/06/24 06:17:40;;;;;;;11.88;8.23;;;;;;;24.27;100.00;93204.34;5068838;28;20501;-78
2023/06/24 06:20:10;;;;;;;13.50;9.00;;;;;;;24.27;100.00;93225.34;5068276;28;20087;-78
2023/06/24 06:22:38;;;;;;;11.93;7.90;;;;;;;24.66;100.00;93218.72;5068824;28;20052;-78
2023/06/24 06:25:06;;;;;;;14.50;9.05;;;;;;;25.22;100.00;93220.28;5073543;28;20048;-78
2023/06/24 06:27:33;;;;;;;14.80;8.20;;;;;;;25.37;99.52;93215.75;5070971;28;20053;-78
2023/06/24 06:29:59;;;;;;;13.45;7.90;;;;;;;25.85;95.42;93228.19;5070106;28;20097;-78
2023/06/24 06:32:26;;;;;;;14.10;8.27;;;;;;;26.22;93.67;93222.66;5074860;28;20817;-77
2023/06/24 06:34:53;;;;;;;14.98;8.90;;;;;;;26.66;92.66;93233.25;5069374;28;20080;-78
2023/06/24 06:37:21;;;;;;;12.00;8.15;;;;;;;26.80;88.63;93221.78;5070124;28;20563;-77
2023/06/24 06:39:48;;;;;;;12.35;8.80;;;;;;;26.68;88.04;93236.34;5070492;28;20407;-78
2023/06/24 06:42:14;;;;;;;14.82;8.77;;;;;;;26.98;88.73;93234.97;5070675;28;20121;-78
2023/06/24 06:44:41;;;;;;;12.00;7.82;;;;;;;27.06;86.17;93234.16;5072205;28;20062;-77
2023/06/24 06:47:08;;;;;;;14.13;7.95;;;;;;;27.21;87.62;93235.50;5073392;28;20055;-77
2023/06/24 06:49:35;;;;;;;12.55;8.10;;;;;;;27.43;86.00;93239.03;5069478;28;20041;-77
2023/06/24 06:52:01;;;;;;;14.70;8.10;;;;;;;27.77;85.12;93234.72;5071146;28;20464;-77
2023/06/24 06:54:30;;;;;;;16.35;8.73;;;;;;;28.19;84.63;93234.03;5069580;28;20049;-78
2023/06/24 06:57:01;;;;;;;12.57;8.05;;;;;;;28.24;81.37;93225.97;5068962;28;20048;-77
2023/06/24 06:59:28;;;;;;;14.75;9.18;;;;;;;28.49;81.82;93241.19;5067663;28;20105;-77
2023/06/24 07:01:54;;;;;;;14.38;9.30;;;;;;;28.23;82.71;93240.25;5070906;28;20188;-78
2023/06/24 07:04:21;;;;;;;15.10;9.10;;;;;;;28.33;82.15;93212.69;5072375;28;20161;-78
2023/06/24 07:06:48;;;;;;;17.33;9.32;;;;;;;28.67;81.00;93234.69;5070758;28;20165;-78
2023/06/24 07:09:15;;;;;;;18.63;9.27;;;;;;;28.67;80.64;93228.59;5070273;28;20041;-78
2023/06/24 07:11:43;;;;;;;14.57;9.23;;;;;;;28.61;81.31;93243.88;5073202;28;20051;-78
2023/06/24 07:14:10;;;;;;;14.30;9.40;;;;;;;28.81;80.65;93234.41;5070950;28;20053;-78
2023/06/24 07:16:37;;;;;;;16.67;10.38;;;;;;;29.06;80.50;93239.00;5072672;28;20051;-78
2023/06/24 07:19:03;;;;;;;16.95;9.57;;;;;;;29.13;79.43;93244.56;5070534;28;20040;-78
2023/06/24 07:21:30;;;;;;;15.32;9.25;;;;;;;28.65;83.05;93233.47;5071310;28;20634;-78
2023/06/24 07:23:57;;;;;;;15.10;9.25;;;;;;;28.73;81.33;93231.84;5070981;28;20449;-77
2023/06/24 07:26:24;;;;;;;16.83;9.10;;;;;;;29.08;78.77;93244.75;5068008;28;20685;-77
2023/06/24 07:28:53;;;;;;;17.27;9.50;;;;;;;29.45;77.72;93244.06;5070424;28;20049;-78
2023/06/24 07:31:19;;;;;;;16.05;9.77;;;;;;;29.98;76.64;93233.66;5072014;28;20046;-78
2023/06/24 07:33:46;;;;;;;16.15;9.40;;;;;;;30.09;73.08;93233.97;5076487;28;20048;-78
2023/06/24 07:36:13;;;;;;;16.73;8.82;;;;;;;30.14;74.28;93219.75;5085569;28;20474;-78
2023/06/24 07:38:40;;;;;;;16.95;9.38;;;;;;;30.71;75.02;93232.34;5070797;28;20059;-78
2023/06/24 07:41:07;;;;;;;20.52;9.93;;;;;;;31.15;72.83;93239.56;5080130;28;20105;-78
2023/06/24 07:43:33;;;;;;;18.45;9.23;;;;;;;31.39;71.34;93233.38;5073222;28;20052;-79
2023/06/24 07:46:02;;;;;;;18.98;10.63;;;;;;;29.87;75.36;93235.97;5074822;28;20048;-78
2023/06/24 07:48:28;;;;;;;19.55;9.80;;;;;;;29.60;76.54;93238.19;5077445;28;20098;-79
2023/06/24 07:50:55;;;;;;;16.05;9.77;;;;;;;30.30;75.51;93245.56;5073731;28;20040;-78
2023/06/24 07:53:22;;;;;;;16.85;9.60;;;;;;;30.54;75.58;93247.38;5070293;28;21096;-78
2023/06/24 07:55:48;;;;;;;16.38;9.75;;;;;;;29.94;75.62;93240.72;5078730;28;20052;-78
2023/06/24 07:58:15;;;;;;;16.13;8.50;;;;;;;30.00;74.04;93238.63;5071715;28;20566;-78
2023/06/24 08:00:42;;;;;;;14.52;10.32;;;;;;;30.15;76.01;93242.50;5073170;28;20044;-78
2023/06/24 08:03:10;;;;;;;21.35;10.98;;;;;;;30.31;74.23;93241.81;5078061;28;20655;-78
2023/06/24 08:05:38;;;;;;;18.45;9.73;;;;;;;30.26;76.29;93248.09;5073341;28;20772;-80
2023/06/24 08:08:05;;;;;;;21.08;9.90;;;;;;;29.05;77.21;93235.59;5073535;28;20560;-79
2023/06/24 08:10:32;;;;;;;17.08;9.93;;;;;;;29.12;78.45;93229.00;5073481;28;20163;-80
2023/06/24 08:12:59;;;;;;;17.05;9.55;;;;;;;29.16;78.84;93235.19;5071455;28;20048;-80
2023/06/24 08:15:26;;;;;;;13.45;9.20;;;;;;;29.15;79.78;93231.03;5077346;28;20063;-80
2023/06/24 08:17:53;;;;;;;14.48;9.35;;;;;;;28.97;77.77;93219.84;5071255;28;20044;-80
2023/06/24 08:20:21;;;;;;;19.27;10.48;;;;;;;29.59;78.53;93225.25;5085604;28;20047;-79
2023/06/24 08:22:48;;;;;;;16.23;8.80;;;;;;;30.26;76.15;93238.28;5074882;28;20056;-79
2023/06/24 08:25:15;;;;;;;16.17;9.73;;;;;;;30.67;73.57;93225.03;5079506;28;20094;-79
2023/06/24 08:27:43;;;;;;;15.80;8.75;;;;;;;31.12;71.31;93225.09;5070844;28;20044;-79
2023/06/24 08:30:11;;;;;;;15.43;9.75;;;;;;;31.54;70.24;93231.84;5074337;28;20161;-79
2023/06/24 08:32:37;;;;;;;12.50;9.13;;;;;;;31.75;69.32;93230.81;5071953;28;20506;-79
2023/06/24 08:35:05;;;;;;;23.63;9.45;;;;;;;32.12;69.32;93224.44;5074541;28;20098;-79
2023/06/24 08:37:35;;;;;;;15.30;8.90;;;;;;;32.33;67.67;93221.47;5075801;28;20048;-80
2023/06/24 08:40:04;;;;;;;14.45;8.90;;;;;;;32.16;66.23;93219.94;5081463;28;20056;-80
2023/06/24 08:42:31;;;;;;;13.43;9.00;;;;;;;32.47;67.71;93215.69;5075708;28;20045;-79
2023/06/24 08:44:57;;;;;;;14.50;9.13;;;;;;;30.94;68.36;93219.31;5074733;28;20044;-82
2023/06/24 08:47:25;;;;;;;13.65;9.30;;;;;;;30.78;74.64;93208.69;5071224;28;20141;-81
2023/06/24 08:49:57;;;;;;;12.73;9.25;;;;;;;30.08;72.51;93219.19;5079981;28;20040;-80
2023/06/24 08:52:29;;;;;;;12.02;9.00;;;;;;;30.75;73.69;93212.78;5073231;28;20052;-80
2023/06/24 08:55:00;;;;;;;12.15;8.57;;;;;;;31.16;69.35;93222.53;5072315;28;20101;-80
2023/06/24 08:57:27;;;;;;;13.40;9.23;;;;;;;31.48;70.31;93216.50;5087714;28;20195;-80
2023/06/24 08:59:54;;;;;;;12.65;8.70;;;;;;;31.73;69.96;93220.53;5072141;28;20706;-80
2023/06/24 09:02:21;;;;;;;13.88;8.38;;;;;;;31.65;70.18;93207.44;5076983;28;20519;-81
2023/06/24 09:04:48;;;;;;;11.63;7.97;;;;;;;30.57;71.93;93214.13;5076396;28;20494;-81
2023/06/24 09:07:24;;;;;;;11.95;8.52;;;;;;;30.44;73.59;93208.13;5070595;28;20052;-81
2023/06/24 09:09:50;;;;;;;13.43;8.57;;;;;;;31.12;72.33;93208.41;5077017;28;20049;-81
2023/06/24 09:12:18;;;;;;;11.82;8.15;;;;;;;30.73;70.34;93216.88;5071123;28;20185;-82
2023/06/24 09:14:49;;;;;;;10.35;7.35;;;;;;;30.59;70.65;93202.06;5072024;28;20048;-81
2023/06/24 09:17:16;;;;;;;14.75;8.98;;;;;;;31.41;68.17;93220.53;5082266;28;20482;-81
2023/06/24 09:19:43;;;;;;;12.10;8.50;;;;;;;31.16;68.75;93222.53;5071807;28;20105;-81
2023/06/24 09:22:16;;;;;;;11.15;7.15;;;;;;;31.48;67.01;93235.88;5075110;28;20044;-80
2023/06/24 09:24:44;;;;;;;10.40;7.35;;;;;;;31.16;68.21;93227.84;5073394;28;20084;-80
2023/06/24 09:27:13;;;;;;;10.77;7.22;;;;;;;30.25;66.46;93228.78;5070271;28;20485;-82
2023/06/24 09:29:42;;;;;;;8.38;6.15;;;;;;;30.56;65.65;93223.19;5072159;28;20089;-80
2023/06/24 09:32:09;;;;;;;9.35;6.63;;;;;;;30.57;68.74;93225.50;5072399;28;20036;-80
2023/06/24 09:34:36;;;;;;;12.15;7.45;;;;;;;30.31;67.37;93231.22;5070627;28;20041;-81
2023/06/24 09:37:03;;;;;;;9.52;6.78;;;;;;;30.20;64.53;93234.31;5073134;28;20101;-81
2023/06/24 09:39:36;;;;;;;12.80;7.20;;;;;;;30.76;64.72;93221.50;5075752;28;20060;-80
2023/06/24 09:42:05;;;;;;;10.88;7.55;;;;;;;30.03;68.41;93208.06;5069978;28;20490;-80
2023/06/24 09:44:32;;;;;;;8.95;6.88;;;;;;;29.83;66.29;93231.66;5077453;28;20557;-81
2023/06/24 09:47:00;;;;;;;11.52;7.13;;;;;;;29.76;67.65;93224.25;5082572;28;20105;-81
2023/06/24 09:49:27;;;;;;;11.20;7.63;;;;;;;30.36;68.42;93225.69;5071559;28;20043;-80
2023/06/24 09:51:57;;;;;;;9.80;7.07;;;;;;;30.87;64.77;93222.53;5074332;28;20044;-81
2023/06/24 09:54:27;;;;;;;12.10;6.85;;;;;;;30.13;67.11;93213.69;5073410;28;20048;-82
2023/06/24 09:56:55;;;;;;;10.82;7.47;;;;;;;30.35;70.50;93208.22;5073741;28;20122;-82
2023/06/24 09:59:24;;;;;;;13.00;8.15;;;;;;;30.09;69.42;93209.38;5072322;28;20044;-81
2023/06/24 10:01:53;;;;;;;12.75;7.43;;;;;;;30.71;66.98;93203.94;5072319;28;20454;-80
2023/06/24 10:04:23;;;;;;;10.80;8.50;;;;;;;31.26;67.13;93205.31;5074344;28;20048;-81
2023/06/24 10:06:50;;;;;;;10.18;7.75;;;;;;;30.74;67.42;93205.94;5072182;28;20136;-81
2023/06/24 10:09:17;;;;;;;9.98;7.60;;;;;;;30.51;69.11;93203.00;5072529;28;20040;-83
2023/06/24 10:11:45;;;;;;;10.35;7.25;;;;;;;30.29;68.93;93201.63;5074692;28;20127;-80
2023/06/24 10:14:12;;;;;;;10.00;6.50;;;;;;;30.46;70.72;93187.34;5073272;28;20097;-80
2023/06/24 10:16:39;;;;;;;9.38;6.78;;;;;;;30.36;67.09;93189.34;5077007;28;20044;-81
2023/06/24 10:19:06;;;;;;;14.10;8.75;;;;;;;29.53;65.82;93185.00;5072511;28;20089;-82
2023/06/24 10:21:51;;;;;;;9.52;6.05;;;;;;;29.78;64.92;93187.66;5071541;28;20059;-82
2023/06/24 10:24:30;;;;;;;14.23;9.20;;;;;;;29.93;65.98;93183.56;5066420;28;20044;-82
2023/06/24 10:27:03;;;;;;;10.05;7.38;;;;;;;30.13;66.42;93167.91;5075931;28;21264;-81
2023/06/24 10:29:35;;;;;;;9.10;6.57;;;;;;;29.68;64.60;93174.88;5069299;28;20047;-82
2023/06/24 10:32:06;;;;;;;10.68;6.78;;;;;;;29.58;67.38;93152.28;5072915;28;20040;-81
2023/06/24 10:34:43;;;;;;;11.20;7.15;;;;;;;29.62;69.13;93163.72;5071909;28;20098;-82
2023/06/24 10:37:14;;;;;;;10.75;6.60;;;;;;;30.36;70.72;93146.19;5067714;28;20045;-82
2023/06/24 10:39:52;;;;;;;9.82;6.50;;;;;;;29.51;66.35;93136.94;5077465;28;20070;-81
2023/06/24 10:42:38;;;;;;;11.60;6.20;;;;;;;30.14;68.84;93149.00;5069457;28;20106;-82
2023/06/24 10:45:16;;;;;;;10.18;6.88;;;;;;;30.16;67.55;93146.03;5080319;28;20048;-81
2023/06/24 10:47:44;;;;;;;10.98;6.72;;;;;;;30.25;66.41;93149.31;5071632;28;20089;-82
2023/06/24 10:50:12;;;;;;;11.57;7.03;;;;;;;29.89;68.87;93144.84;5074708;28;20057;-82
2023/06/24 10:52:42;;;;;;;10.10;7.30;;;;;;;30.05;71.11;93124.50;5074759;28;20048;-82
2023/06/24 10:55:09;;;;;;;9.23;6.55;;;;;;;30.16;68.96;93142.63;5070697;28;20048;-82
2023/06/24 10:57:37;;;;;;;10.23;7.20;;;;;;;30.27;69.29;93139.13;5068929;28;20126;-82
2023/06/24 11:00:05;;;;;;;8.57;6.50;;;;;;;30.08;68.28;93141.63;5068847;28;20601;-82
2023/06/24 11:02:32;;;;;;;8.75;6.68;;;;;;;30.08;67.19;93144.25;5076702;28;20497;-83
2023/06/24 11:05:00;;;;;;;9.30;6.55;;;;;;;30.84;68.31;93141.03;5068916;28;20041;-83
2023/06/24 11:07:30;;;;;;;11.80;6.40;;;;;;;30.20;66.46;93109.03;5069176;28;20102;-82
2023/06/24 11:10:02;;;;;;;9.02;6.57;;;;;;;31.00;65.10;93143.69;5067295;28;20497;-84
2023/06/24 11:12:31;;;;;;;9.70;6.82;;;;;;;30.73;64.15;93146.03;5070780;28;20409;-83
2023/06/24 11:14:58;;;;;;;9.98;5.93;;;;;;;30.85;63.45;93129.31;5074010;28;20044;-82
2023/06/24 11:17:25;;;;;;;9.40;6.38;;;;;;;31.10;63.37;93123.84;5066854;28;20102;-83
2023/06/24 11:19:53;;;;;;;8.98;5.75;;;;;;;31.01;60.31;93129.31;5071955;28;20052;-84
2023/06/24 11:22:21;;;;;;;8.07;5.68;;;;;;;31.14;59.74;93123.94;5080537;28;20044;-83
2023/06/24 11:24:48;;;;;;;8.32;5.95;;;;;;;31.66;58.31;93142.59;5069561;28;20057;-85